Time;durP1;ratioP1;P1;durP2;ratioP2;P2;SDS_P1;SDS_P2;PMS_P1;PMS_P2;Temp;Humidity;BMP_temperature;BMP_pressure;BME280_temperature;BME280_humidity;BME280_pressure;Samples;Min_cycle;Max_cycle;Signal;HPM_P1;HPM_P2
2023/02/13 18:51:02;;;;;;;65.30;37.70;;;;;;;3.23;69.72;100680.33;102196;1297;636437;-68
2023/02/13 18:53:31;;;;;;;83.90;49.90;;;;;;;3.19;69.36;100675.48;104038;1270;94456;-68
2023/02/13 18:56:04;;;;;;;69.80;41.40;;;;;;;3.18;69.91;100680.58;104279;1266;94326;-67
2023/02/13 18:58:33;;;;;;;60.50;30.60;;;;;;;3.18;70.30;100680.23;104077;1270;109290;-68
2023/02/13 19:01:10;;;;;;;55.10;29.70;;;;;;;3.18;70.05;100672.53;104804;1260;102492;-66
2023/02/13 19:03:39;;;;;;;49.10;27.50;;;;;;;3.17;69.29;100668.48;104619;1269;134745;-68
2023/02/13 19:06:10;;;;;;;52.40;28.30;;;;;;;3.16;70.15;100669.73;104734;1259;94822;-68
2023/02/13 19:08:38;;;;;;;56.60;30.50;;;;;;;3.16;69.06;100663.77;104809;1257;94336;-66
2023/02/13 19:11:10;;;;;;;52.40;28.60;;;;;;;3.15;69.47;100665.02;104935;1257;106934;-68
2023/02/13 19:13:40;;;;;;;51.50;26.90;;;;;;;3.14;69.63;100664.67;104898;1259;100406;-66
2023/02/13 19:16:15;;;;;;;60.10;29.40;;;;;;;3.13;69.50;100666.80;105263;1259;107685;-68
2023/02/13 19:18:45;;;;;;;56.20;29.70;;;;;;;3.12;69.39;100668.91;104710;1259;95174;-68
2023/02/13 19:21:15;;;;;;;44.40;24.00;;;;;;;3.12;69.27;100659.98;104656;1260;95387;-68
2023/02/13 19:23:44;;;;;;;42.60;23.30;;;;;;;3.11;69.51;100662.09;104681;1259;109055;-68
2023/02/13 19:26:15;;;;;;;42.90;23.40;;;;;;;3.11;69.51;100658.23;106379;1257;104587;-67
2023/02/13 19:28:44;;;;;;;38.10;20.10;;;;;;;3.10;70.22;100658.08;104538;1258;107823;-68
2023/02/13 19:31:24;;;;;;;37.00;19.70;;;;;;;3.11;70.22;100668.41;104987;1259;95301;-67
2023/02/13 19:33:52;;;;;;;35.30;19.20;;;;;;;3.12;70.10;100674.17;105066;1257;95718;-67
2023/02/13 19:36:24;;;;;;;34.40;19.40;;;;;;;3.11;69.90;100672.25;105934;1252;108262;-69
2023/02/13 19:39:02;;;;;;;30.30;15.00;;;;;;;3.12;70.18;100675.06;104971;1257;101988;-67
2023/02/13 19:41:32;;;;;;;32.50;15.20;;;;;;;3.11;70.36;100673.14;108696;1252;106853;-67
2023/02/13 19:44:00;;;;;;;30.10;14.50;;;;;;;3.11;70.00;100676.64;108689;1252;92913;-67
2023/02/13 19:46:30;;;;;;;27.50;14.70;;;;;;;3.11;69.44;100673.67;104836;1253;95486;-68
2023/02/13 19:48:59;;;;;;;28.30;14.40;;;;;;;3.11;69.67;100681.03;105079;1251;107719;-68
2023/02/13 19:51:30;;;;;;;28.40;12.40;;;;;;;3.11;69.36;100690.31;104964;1256;100704;-68
2023/02/13 19:54:01;;;;;;;27.40;13.10;;;;;;;3.11;69.80;100694.17;104830;1253;107442;-68
2023/02/13 19:56:30;;;;;;;27.60;14.50;;;;;;;3.12;69.66;100687.14;104959;1256;95263;-68
2023/02/13 19:58:58;;;;;;;29.80;14.70;;;;;;;3.12;69.53;100687.67;104885;1256;95356;-68
2023/02/13 20:01:28;;;;;;;40.10;19.90;;;;;;;3.10;69.91;100680.88;104875;1256;109176;-68
2023/02/13 20:03:57;;;;;;;64.50;30.40;;;;;;;3.09;69.99;100681.94;104799;1271;100833;-68
2023/02/13 20:06:30;;;;;;;52.30;24.90;;;;;;;3.08;70.65;100686.15;108724;1252;107619;-66
2023/02/13 20:09:00;;;;;;;38.00;18.30;;;;;;;3.09;70.06;100687.90;108697;1251;93230;-64
2023/02/13 20:11:28;;;;;;;37.30;21.80;;;;;;;3.09;70.16;100687.36;108745;1252;92995;-65
2023/02/13 20:13:59;;;;;;;31.40;17.30;;;;;;;3.10;69.83;100682.09;108748;1251;108535;-65
2023/02/13 20:16:31;;;;;;;32.20;17.10;;;;;;;3.11;70.32;100689.27;105428;1256;100358;-67
2023/02/13 20:19:04;;;;;;;27.60;14.10;;;;;;;3.12;69.59;100698.72;104883;1256;107563;-67
2023/02/13 20:21:34;;;;;;;21.40;10.10;;;;;;;3.11;69.89;100702.23;105052;1253;95329;-66
2023/02/13 20:24:03;;;;;;;29.20;16.10;;;;;;;3.11;70.15;100701.36;104998;1254;95592;-66
2023/02/13 20:26:31;;;;;;;86.50;48.50;;;;;;;3.10;69.72;100695.77;105587;1252;110133;-65
2023/02/13 20:29:00;;;;;;;66.20;50.20;;;;;;;3.09;70.20;100689.48;105013;1256;101769;-65
2023/02/13 20:31:28;;;;;;;39.90;25.60;;;;;;;3.09;70.11;100689.83;105153;1254;107566;-65
2023/02/13 20:33:57;;;;;;;43.90;22.40;;;;;;;3.08;70.11;100681.06;104997;1256;95337;-66
2023/02/13 20:36:29;;;;;;;68.90;31.60;;;;;;;3.08;69.93;100672.66;104820;1255;96917;-65
2023/02/13 20:39:00;;;;;;;51.60;25.00;;;;;;;3.07;69.66;100669.35;104990;1256;110255;-65
2023/02/13 20:41:30;;;;;;;47.30;20.80;;;;;;;3.06;70.28;100669.02;104973;1256;101298;-66
2023/02/13 20:44:01;;;;;;;50.90;25.60;;;;;;;3.04;70.36;100672.20;104908;1253;107629;-65
2023/02/13 20:46:35;;;;;;;51.50;26.50;;;;;;;3.03;69.78;100672.92;104929;1256;95260;-66
2023/02/13 20:49:03;;;;;;;37.40;19.00;;;;;;;3.00;69.57;100667.54;104994;1256;95245;-65
2023/02/13 20:51:31;;;;;;;40.10;21.30;;;;;;;2.99;69.93;100673.34;105304;1256;107930;-65
2023/02/13 20:54:00;;;;;;;34.80;16.80;;;;;;;2.99;69.79;100671.77;105055;1253;100981;-66
2023/02/13 20:56:28;;;;;;;35.10;18.00;;;;;;;2.99;69.68;100677.01;104792;1268;108514;-65
2023/02/13 20:58:59;;;;;;;36.40;18.80;;;;;;;3.00;69.80;100684.02;104787;1253;95250;-64
2023/02/13 21:01:29;;;;;;;30.40;16.00;;;;;;;3.00;69.78;100689.27;104959;1256;95768;-66
2023/02/13 21:03:58;;;;;;;31.90;15.60;;;;;;;3.00;69.94;100693.48;105073;1256;108483;-66
2023/02/13 21:06:28;;;;;;;105.00;37.70;;;;;;;2.98;70.88;100702.09;104984;1253;101517;-66
2023/02/13 21:08:58;;;;;;;93.90;34.60;;;;;;;2.98;70.14;100704.02;104936;1258;108768;-66
2023/02/13 21:11:29;;;;;;;217.40;73.60;;;;;;;2.98;69.89;100701.90;105018;1253;95360;-66
2023/02/13 21:13:57;;;;;;;107.40;37.40;;;;;;;2.98;70.26;100697.52;104931;1256;96849;-66
2023/02/13 21:16:28;;;;;;;53.00;22.90;;;;;;;2.98;70.11;100696.48;105093;1256;107524;-66
2023/02/13 21:19:00;;;;;;;41.70;19.90;;;;;;;2.97;69.60;100704.38;105082;1253;100057;-67
2023/02/13 21:21:30;;;;;;;35.00;13.90;;;;;;;2.97;70.24;100710.34;105113;1268;105455;-66
2023/02/13 21:24:02;;;;;;;32.10;16.20;;;;;;;2.95;70.34;100709.14;105035;1274;96184;-67
2023/02/13 21:26:30;;;;;;;30.20;15.40;;;;;;;2.95;70.57;100709.66;105006;1253;95746;-66
2023/02/13 21:28:59;;;;;;;36.60;17.50;;;;;;;2.95;70.01;100707.04;105145;1252;109955;-65
2023/02/13 21:31:30;;;;;;;38.10;22.00;;;;;;;2.94;69.89;100704.43;105100;1265;100677;-65
2023/02/13 21:34:07;;;;;;;35.60;17.80;;;;;;;2.93;70.23;100699.89;105144;1256;107592;-65
2023/02/13 21:36:36;;;;;;;26.10;13.80;;;;;;;2.92;69.80;100699.90;105082;1269;95279;-65
2023/02/13 21:39:06;;;;;;;28.30;16.00;;;;;;;2.91;69.54;100694.66;104962;1253;95632;-65
2023/02/13 21:41:36;;;;;;;31.50;14.80;;;;;;;2.89;69.43;100695.91;104993;1256;106832;-65
2023/02/13 21:44:04;;;;;;;27.50;13.50;;;;;;;2.89;69.84;100698.36;105253;1256;100921;-65
2023/02/13 21:46:32;;;;;;;30.90;16.10;;;;;;;2.89;70.13;100696.80;105088;1253;108178;-65
2023/02/13 21:49:03;;;;;;;30.60;13.50;;;;;;;2.89;69.53;100702.92;105278;1253;95330;-66
2023/02/13 21:51:34;;;;;;;32.00;15.00;;;;;;;2.89;69.58;100696.96;105107;1263;95710;-66
2023/02/13 21:54:03;;;;;;;28.30;13.30;;;;;;;2.88;69.42;100695.05;105077;1256;109075;-65
2023/02/13 21:56:34;;;;;;;32.30;16.30;;;;;;;2.87;69.68;100692.78;105062;1263;100882;-65
2023/02/13 21:59:03;;;;;;;34.00;15.90;;;;;;;2.86;69.77;100695.77;105058;1256;106161;-65
2023/02/13 22:01:34;;;;;;;30.60;16.30;;;;;;;2.84;70.03;100695.48;105057;1254;95247;-65
2023/02/13 22:04:07;;;;;;;33.20;15.10;;;;;;;2.82;69.98;100692.86;104999;1253;95299;-65
2023/02/13 22:06:37;;;;;;;28.30;14.80;;;;;;;2.81;69.45;100694.46;105041;1256;106509;-65
2023/02/13 22:09:11;;;;;;;29.30;13.70;;;;;;;2.80;69.70;100695.70;105125;1256;100688;-65
2023/02/13 22:11:40;;;;;;;33.60;19.20;;;;;;;2.79;70.17;100696.05;105005;1256;107351;-65
2023/02/13 22:14:15;;;;;;;32.10;16.60;;;;;;;2.77;69.78;100693.29;105044;1268;95246;-65
2023/02/13 22:16:45;;;;;;;30.40;14.70;;;;;;;2.76;69.76;100685.77;104969;1256;96175;-65
2023/02/13 22:19:14;;;;;;;29.60;14.20;;;;;;;2.75;70.07;100678.77;105044;1255;108188;-65
2023/02/13 22:21:43;;;;;;;34.20;16.30;;;;;;;2.73;70.19;100668.98;104991;1256;100180;-65
2023/02/13 22:24:12;;;;;;;31.00;15.80;;;;;;;2.72;70.12;100666.20;105024;1256;107158;-65
2023/02/13 22:26:43;;;;;;;25.70;12.90;;;;;;;2.71;69.78;100659.91;104931;1256;95250;-65
2023/02/13 22:29:14;;;;;;;27.90;12.80;;;;;;;2.69;69.46;100645.40;104973;1256;95676;-65
2023/02/13 22:31:42;;;;;;;29.20;13.30;;;;;;;2.69;69.32;100642.95;105031;1256;108545;-66
2023/02/13 22:34:12;;;;;;;27.50;12.90;;;;;;;2.69;69.69;100643.48;105054;1265;100910;-65
2023/02/13 22:36:41;;;;;;;33.30;14.60;;;;;;;2.67;69.65;100646.66;104993;1253;107661;-65
2023/02/13 22:39:10;;;;;;;28.10;13.90;;;;;;;2.66;69.33;100647.89;104927;1256;95282;-65
2023/02/13 22:41:38;;;;;;;29.30;14.20;;;;;;;2.65;70.14;100644.58;105071;1256;95730;-65
2023/02/13 22:44:06;;;;;;;27.50;13.90;;;;;;;2.65;69.35;100645.46;105130;1253;108296;-65
2023/02/13 22:46:33;;;;;;;27.20;14.70;;;;;;;2.65;69.46;100641.60;105089;1257;101532;-65
2023/02/13 22:49:02;;;;;;;29.60;14.30;;;;;;;2.65;69.68;100638.29;104976;1256;107356;-66
2023/02/13 22:51:33;;;;;;;27.50;14.00;;;;;;;2.63;69.82;100632.00;104911;1256;95374;-65
2023/02/13 22:54:02;;;;;;;29.00;15.10;;;;;;;2.63;69.69;100626.58;105033;1255;95733;-65
2023/02/13 22:56:31;;;;;;;29.70;15.10;;;;;;;2.61;69.56;100626.42;104878;1256;109997;-65
2023/02/13 22:58:58;;;;;;;27.90;14.30;;;;;;;2.60;69.30;100626.09;105057;1254;100830;-65
2023/02/13 23:01:27;;;;;;;34.00;17.30;;;;;;;2.60;69.69;100624.00;104979;1256;107591;-65
2023/02/13 23:03:56;;;;;;;33.80;17.70;;;;;;;2.58;69.78;100618.59;104760;1258;97505;-66
2023/02/13 23:06:25;;;;;;;38.70;19.80;;;;;;;2.56;69.95;100625.09;104997;1256;98063;-65
2023/02/13 23:08:54;;;;;;;33.50;18.40;;;;;;;2.54;69.64;100621.98;105038;1256;109899;-65
2023/02/13 23:14:14;;;;;;;40.40;21.90;;;;;;;2.51;69.58;100622.36;105257;1258;106095;-66
2023/02/13 23:19:30;;;;;;;43.00;21.70;;;;;;;2.49;69.71;100621.86;105039;1252;97109;-65
2023/02/13 23:21:59;;;;;;;36.90;20.30;;;;;;;2.47;70.17;100616.28;105122;1256;109499;-65
2023/02/13 23:24:28;;;;;;;38.70;21.00;;;;;;;2.46;69.60;100618.23;105050;1264;101451;-65
2023/02/13 23:26:58;;;;;;;37.30;19.60;;;;;;;2.44;70.16;100616.86;105102;1254;107378;-65
2023/02/13 23:29:26;;;;;;;40.60;20.40;;;;;;;2.43;69.92;100613.74;104882;1275;96593;-65
2023/02/13 23:31:54;;;;;;;39.70;21.50;;;;;;;2.41;70.23;100610.96;104993;1254;97359;-65
2023/02/13 23:34:22;;;;;;;40.40;21.60;;;;;;;2.39;70.05;100607.13;104987;1256;109897;-65
2023/02/13 23:36:50;;;;;;;44.20;21.90;;;;;;;2.38;70.11;100603.98;104994;1257;100902;-66
2023/02/13 23:39:19;;;;;;;46.10;21.80;;;;;;;2.38;69.34;100593.31;105182;1255;108125;-65
2023/02/13 23:41:48;;;;;;;44.10;21.70;;;;;;;2.37;69.60;100592.98;104941;1257;97411;-65
2023/02/13 23:44:16;;;;;;;44.50;22.60;;;;;;;2.35;69.54;100592.48;104861;1264;97029;-65
2023/02/13 23:46:43;;;;;;;46.10;23.80;;;;;;;2.34;70.01;100595.45;105000;1256;110468;-65
2023/02/13 23:49:11;;;;;;;42.90;22.00;;;;;;;2.34;70.10;100598.45;105250;1254;102932;-65
2023/02/13 23:51:39;;;;;;;39.70;21.90;;;;;;;2.33;70.48;100599.86;105066;1257;108208;-66
2023/02/13 23:54:08;;;;;;;43.00;23.60;;;;;;;2.33;70.25;100601.09;104811;1267;96734;-65
2023/02/13 23:56:36;;;;;;;37.70;20.80;;;;;;;2.32;70.35;100601.09;105142;1253;97067;-66
2023/02/13 23:59:04;;;;;;;42.20;24.40;;;;;;;2.32;70.25;100591.82;105226;1250;110090;-66
